Terminal Aerodrome Forecast
Issued by NWS

Home | Current Version | Previous Version | Graphics & Text | Print | Product List | Glossary On
Versions: 1 2 3 4 5 6 7 8 9 10 11 12 13 14 15 16 17 18 19 20 21 22 23 24 25 26 27 28 29
374
FTUS43 KGRB 201728
TAFRHI
TAF
KRHI 201728Z 2018/2118 08008KT 1 1/2SM -RA BR BKN006 OVC013
      TEMPO 2018/2022 4SM -DZ BR
     FM202200 36006KT 5SM -RA BR OVC007
     FM210100 33009KT 6SM BR OVC008
      TEMPO 2101/2105 4SM -RASN BR
     FM210500 32009KT P6SM BKN008 OVC015
     FM211200 33010KT P6SM OVC010
     FM211500 34011KT P6SM BKN020
      TEMPO 2115/2118 SCT020=

USA.gov is the U.S. government's official web portal to all federal, state and local government web resources and services.